sensor_id;sensor_type;location;lat;lon;timestamp;P1;durP1;ratioP1;P2;durP2;ratioP2
10088;SDS011;51898;49.864;8.550;2022-07-05T00:02:40;3.47;;;2.53;;
10088;SDS011;51898;49.864;8.550;2022-07-05T00:05:42;2.87;;;2.57;;
10088;SDS011;51898;49.864;8.550;2022-07-05T00:08:44;3.33;;;3.03;;
10088;SDS011;51898;49.864;8.550;2022-07-05T00:11:46;2.93;;;2.60;;
10088;SDS011;51898;49.864;8.550;2022-07-05T00:14:48;2.93;;;2.43;;
10088;SDS011;51898;49.864;8.550;2022-07-05T00:17:50;6.17;;;2.67;;
10088;SDS011;51898;49.864;8.550;2022-07-05T00:20:52;3.53;;;2.40;;
10088;SDS011;51898;49.864;8.550;2022-07-05T00:23:54;2.97;;;2.63;;
10088;SDS011;51898;49.864;8.550;2022-07-05T00:26:55;6.70;;;3.20;;
10088;SDS011;51898;49.864;8.550;2022-07-05T00:29:57;2.50;;;2.30;;
10088;SDS011;51898;49.864;8.550;2022-07-05T00:32:59;2.43;;;2.33;;
10088;SDS011;51898;49.864;8.550;2022-07-05T00:36:00;2.33;;;2.20;;
10088;SDS011;51898;49.864;8.550;2022-07-05T00:39:02;2.97;;;2.73;;
10088;SDS011;51898;49.864;8.550;2022-07-05T00:42:05;4.33;;;2.73;;
10088;SDS011;51898;49.864;8.550;2022-07-05T00:45:07;2.60;;;2.40;;
10088;SDS011;51898;49.864;8.550;2022-07-05T00:48:09;3.17;;;2.97;;
10088;SDS011;51898;49.864;8.550;2022-07-05T00:51:11;2.60;;;2.43;;
10088;SDS011;51898;49.864;8.550;2022-07-05T00:54:13;5.33;;;2.67;;
10088;SDS011;51898;49.864;8.550;2022-07-05T00:57:15;3.67;;;2.40;;
10088;SDS011;51898;49.864;8.550;2022-07-05T01:00:17;4.83;;;2.70;;
10088;SDS011;51898;49.864;8.550;2022-07-05T01:03:19;4.10;;;2.57;;
10088;SDS011;51898;49.864;8.550;2022-07-05T01:06:21;4.33;;;3.00;;
10088;SDS011;51898;49.864;8.550;2022-07-05T01:09:23;2.90;;;2.70;;
10088;SDS011;51898;49.864;8.550;2022-07-05T01:12:25;2.80;;;2.60;;
10088;SDS011;51898;49.864;8.550;2022-07-05T01:15:27;3.43;;;2.70;;
10088;SDS011;51898;49.864;8.550;2022-07-05T01:18:29;2.80;;;2.60;;
10088;SDS011;51898;49.864;8.550;2022-07-05T01:21:42;2.77;;;2.50;;
10088;SDS011;51898;49.864;8.550;2022-07-05T01:24:45;2.70;;;2.50;;
10088;SDS011;51898;49.864;8.550;2022-07-05T01:27:48;6.63;;;2.93;;
10088;SDS011;51898;49.864;8.550;2022-07-05T01:30:50;4.00;;;2.57;;
10088;SDS011;51898;49.864;8.550;2022-07-05T01:33:52;2.50;;;2.30;;
10088;SDS011;51898;49.864;8.550;2022-07-05T01:36:54;3.03;;;2.70;;
10088;SDS011;51898;49.864;8.550;2022-07-05T01:39:56;2.77;;;2.57;;
10088;SDS011;51898;49.864;8.550;2022-07-05T01:42:59;3.00;;;2.80;;
10088;SDS011;51898;49.864;8.550;2022-07-05T01:46:02;4.47;;;2.50;;
10088;SDS011;51898;49.864;8.550;2022-07-05T01:49:08;3.30;;;3.00;;
10088;SDS011;51898;49.864;8.550;2022-07-05T01:52:12;5.07;;;2.77;;
10088;SDS011;51898;49.864;8.550;2022-07-05T01:55:17;2.83;;;2.60;;
10088;SDS011;51898;49.864;8.550;2022-07-05T01:58:19;6.10;;;2.60;;
10088;SDS011;51898;49.864;8.550;2022-07-05T02:01:36;3.30;;;2.33;;
10088;SDS011;51898;49.864;8.550;2022-07-05T02:04:40;4.17;;;3.17;;
10088;SDS011;51898;49.864;8.550;2022-07-05T02:07:47;2.90;;;2.70;;
10088;SDS011;51898;49.864;8.550;2022-07-05T02:10:50;3.33;;;3.10;;
10088;SDS011;51898;49.864;8.550;2022-07-05T02:13:52;6.17;;;3.70;;
10088;SDS011;51898;49.864;8.550;2022-07-05T02:16:53;2.90;;;2.70;;
10088;SDS011;51898;49.864;8.550;2022-07-05T02:19:56;3.73;;;3.30;;
10088;SDS011;51898;49.864;8.550;2022-07-05T02:22:59;8.23;;;3.57;;
10088;SDS011;51898;49.864;8.550;2022-07-05T02:26:00;2.83;;;2.50;;
10088;SDS011;51898;49.864;8.550;2022-07-05T02:29:03;3.50;;;2.30;;
10088;SDS011;51898;49.864;8.550;2022-07-05T02:32:05;5.47;;;2.60;;
10088;SDS011;51898;49.864;8.550;2022-07-05T02:35:07;4.13;;;2.90;;
10088;SDS011;51898;49.864;8.550;2022-07-05T02:38:10;2.80;;;2.60;;
10088;SDS011;51898;49.864;8.550;2022-07-05T02:41:12;3.23;;;2.83;;
10088;SDS011;51898;49.864;8.550;2022-07-05T02:44:14;3.70;;;2.87;;
10088;SDS011;51898;49.864;8.550;2022-07-05T02:47:15;3.00;;;2.80;;
10088;SDS011;51898;49.864;8.550;2022-07-05T02:50:17;2.40;;;2.20;;
10088;SDS011;51898;49.864;8.550;2022-07-05T02:53:19;3.20;;;2.90;;
10088;SDS011;51898;49.864;8.550;2022-07-05T02:56:20;6.43;;;2.97;;
10088;SDS011;51898;49.864;8.550;2022-07-05T02:59:22;5.20;;;3.30;;
10088;SDS011;51898;49.864;8.550;2022-07-05T03:02:24;2.83;;;2.60;;
10088;SDS011;51898;49.864;8.550;2022-07-05T03:05:25;2.77;;;2.57;;
10088;SDS011;51898;49.864;8.550;2022-07-05T03:08:27;5.93;;;3.20;;
10088;SDS011;51898;49.864;8.550;2022-07-05T03:11:29;3.93;;;3.40;;
10088;SDS011;51898;49.864;8.550;2022-07-05T03:14:31;4.53;;;3.07;;
10088;SDS011;51898;49.864;8.550;2022-07-05T03:17:33;4.27;;;3.10;;
10088;SDS011;51898;49.864;8.550;2022-07-05T03:20:35;4.33;;;2.87;;
10088;SDS011;51898;49.864;8.550;2022-07-05T03:23:37;5.10;;;2.73;;
10088;SDS011;51898;49.864;8.550;2022-07-05T03:26:38;3.83;;;2.57;;
10088;SDS011;51898;49.864;8.550;2022-07-05T03:29:40;4.80;;;3.00;;
10088;SDS011;51898;49.864;8.550;2022-07-05T03:32:42;4.00;;;3.60;;
10088;SDS011;51898;49.864;8.550;2022-07-05T03:35:43;6.33;;;3.17;;
10088;SDS011;51898;49.864;8.550;2022-07-05T03:38:45;2.80;;;2.60;;
10088;SDS011;51898;49.864;8.550;2022-07-05T03:41:47;5.10;;;3.00;;
10088;SDS011;51898;49.864;8.550;2022-07-05T03:44:49;3.50;;;3.20;;
10088;SDS011;51898;49.864;8.550;2022-07-05T03:47:51;4.40;;;3.00;;
10088;SDS011;51898;49.864;8.550;2022-07-05T03:50:52;3.80;;;3.20;;
10088;SDS011;51898;49.864;8.550;2022-07-05T03:53:54;4.63;;;3.60;;
10088;SDS011;51898;49.864;8.550;2022-07-05T03:56:56;6.03;;;3.40;;
10088;SDS011;51898;49.864;8.550;2022-07-05T03:59:58;4.27;;;3.37;;
10088;SDS011;51898;49.864;8.550;2022-07-05T04:03:00;7.17;;;3.20;;
10088;SDS011;51898;49.864;8.550;2022-07-05T04:06:02;4.70;;;3.43;;
10088;SDS011;51898;49.864;8.550;2022-07-05T04:09:04;4.50;;;3.17;;
10088;SDS011;51898;49.864;8.550;2022-07-05T04:12:06;3.03;;;2.73;;
10088;SDS011;51898;49.864;8.550;2022-07-05T04:15:08;4.20;;;3.80;;
10088;SDS011;51898;49.864;8.550;2022-07-05T04:18:10;4.83;;;3.50;;
10088;SDS011;51898;49.864;8.550;2022-07-05T04:21:12;3.87;;;3.57;;
10088;SDS011;51898;49.864;8.550;2022-07-05T04:24:14;5.07;;;3.93;;
10088;SDS011;51898;49.864;8.550;2022-07-05T04:27:16;3.90;;;3.57;;
10088;SDS011;51898;49.864;8.550;2022-07-05T04:30:19;4.30;;;3.57;;
10088;SDS011;51898;49.864;8.550;2022-07-05T04:33:22;4.53;;;3.50;;
10088;SDS011;51898;49.864;8.550;2022-07-05T04:36:23;5.80;;;3.53;;
10088;SDS011;51898;49.864;8.550;2022-07-05T04:39:25;4.23;;;3.93;;
10088;SDS011;51898;49.864;8.550;2022-07-05T04:42:27;4.33;;;3.77;;
10088;SDS011;51898;49.864;8.550;2022-07-05T04:45:29;10.07;;;3.77;;
10088;SDS011;51898;49.864;8.550;2022-07-05T04:48:30;4.67;;;4.13;;
10088;SDS011;51898;49.864;8.550;2022-07-05T04:51:32;5.93;;;4.00;;
10088;SDS011;51898;49.864;8.550;2022-07-05T04:54:35;4.97;;;3.37;;
10088;SDS011;51898;49.864;8.550;2022-07-05T04:57:40;6.23;;;4.03;;
10088;SDS011;51898;49.864;8.550;2022-07-05T05:00:43;5.20;;;4.90;;
10088;SDS011;51898;49.864;8.550;2022-07-05T05:03:44;3.80;;;3.50;;
10088;SDS011;51898;49.864;8.550;2022-07-05T05:06:46;5.23;;;3.27;;
10088;SDS011;51898;49.864;8.550;2022-07-05T05:09:48;5.77;;;3.70;;
10088;SDS011;51898;49.864;8.550;2022-07-05T05:12:49;4.75;;;3.88;;
10088;SDS011;51898;49.864;8.550;2022-07-05T05:15:51;7.20;;;5.37;;
10088;SDS011;51898;49.864;8.550;2022-07-05T05:18:53;4.53;;;4.00;;
10088;SDS011;51898;49.864;8.550;2022-07-05T05:21:54;4.07;;;3.67;;
10088;SDS011;51898;49.864;8.550;2022-07-05T05:24:56;5.47;;;3.90;;
10088;SDS011;51898;49.864;8.550;2022-07-05T05:27:58;5.40;;;4.20;;
10088;SDS011;51898;49.864;8.550;2022-07-05T05:30:59;7.38;;;4.45;;
10088;SDS011;51898;49.864;8.550;2022-07-05T05:34:01;14.10;;;4.87;;
10088;SDS011;51898;49.864;8.550;2022-07-05T05:37:03;7.00;;;4.27;;
10088;SDS011;51898;49.864;8.550;2022-07-05T05:40:05;6.50;;;4.10;;
10088;SDS011;51898;49.864;8.550;2022-07-05T05:43:07;5.17;;;4.70;;
10088;SDS011;51898;49.864;8.550;2022-07-05T05:46:08;8.93;;;4.87;;
10088;SDS011;51898;49.864;8.550;2022-07-05T05:49:10;4.30;;;4.00;;
10088;SDS011;51898;49.864;8.550;2022-07-05T05:52:12;7.07;;;3.90;;
10088;SDS011;51898;49.864;8.550;2022-07-05T05:55:13;3.87;;;3.57;;
10088;SDS011;51898;49.864;8.550;2022-07-05T05:58:21;4.10;;;3.80;;
10088;SDS011;51898;49.864;8.550;2022-07-05T06:01:26;4.40;;;4.00;;
10088;SDS011;51898;49.864;8.550;2022-07-05T06:04:28;3.67;;;3.37;;
10088;SDS011;51898;49.864;8.550;2022-07-05T06:07:30;4.93;;;3.30;;
10088;SDS011;51898;49.864;8.550;2022-07-05T06:10:33;4.07;;;3.77;;
10088;SDS011;51898;49.864;8.550;2022-07-05T06:13:36;3.87;;;3.50;;
10088;SDS011;51898;49.864;8.550;2022-07-05T06:16:38;3.93;;;3.53;;
10088;SDS011;51898;49.864;8.550;2022-07-05T06:19:40;7.13;;;3.90;;
10088;SDS011;51898;49.864;8.550;2022-07-05T06:22:42;4.50;;;3.47;;
10088;SDS011;51898;49.864;8.550;2022-07-05T06:25:44;4.33;;;3.37;;
10088;SDS011;51898;49.864;8.550;2022-07-05T06:28:46;5.80;;;3.73;;
10088;SDS011;51898;49.864;8.550;2022-07-05T06:31:47;3.97;;;3.63;;
10088;SDS011;51898;49.864;8.550;2022-07-05T06:34:49;4.90;;;3.87;;
10088;SDS011;51898;49.864;8.550;2022-07-05T06:37:52;4.17;;;3.27;;
10088;SDS011;51898;49.864;8.550;2022-07-05T06:40:55;4.00;;;3.70;;
10088;SDS011;51898;49.864;8.550;2022-07-05T06:43:58;3.63;;;3.33;;
10088;SDS011;51898;49.864;8.550;2022-07-05T06:47:20;8.80;;;4.10;;
10088;SDS011;51898;49.864;8.550;2022-07-05T06:50:21;6.17;;;3.63;;
10088;SDS011;51898;49.864;8.550;2022-07-05T06:53:23;4.00;;;3.70;;
10088;SDS011;51898;49.864;8.550;2022-07-05T06:56:25;4.60;;;3.70;;
10088;SDS011;51898;49.864;8.550;2022-07-05T06:59:26;4.50;;;3.30;;
10088;SDS011;51898;49.864;8.550;2022-07-05T07:02:48;4.33;;;3.30;;
10088;SDS011;51898;49.864;8.550;2022-07-05T07:05:50;3.80;;;3.50;;
10088;SDS011;51898;49.864;8.550;2022-07-05T07:09:08;5.37;;;3.50;;
10088;SDS011;51898;49.864;8.550;2022-07-05T07:12:19;4.47;;;4.00;;
10088;SDS011;51898;49.864;8.550;2022-07-05T07:15:20;4.80;;;3.50;;
10088;SDS011;51898;49.864;8.550;2022-07-05T07:18:22;4.47;;;3.60;;
10088;SDS011;51898;49.864;8.550;2022-07-05T07:21:24;5.50;;;3.87;;
10088;SDS011;51898;49.864;8.550;2022-07-05T07:24:25;4.30;;;3.90;;
10088;SDS011;51898;49.864;8.550;2022-07-05T07:27:27;3.70;;;3.40;;
10088;SDS011;51898;49.864;8.550;2022-07-05T07:30:29;5.37;;;3.97;;
10088;SDS011;51898;49.864;8.550;2022-07-05T07:33:30;4.30;;;3.83;;
10088;SDS011;51898;49.864;8.550;2022-07-05T07:36:45;5.17;;;3.80;;
10088;SDS011;51898;49.864;8.550;2022-07-05T07:39:47;3.80;;;3.40;;
10088;SDS011;51898;49.864;8.550;2022-07-05T07:42:48;4.40;;;3.90;;
10088;SDS011;51898;49.864;8.550;2022-07-05T07:45:50;4.60;;;3.73;;
10088;SDS011;51898;49.864;8.550;2022-07-05T07:48:52;5.37;;;4.00;;
10088;SDS011;51898;49.864;8.550;2022-07-05T07:52:03;7.07;;;4.90;;
10088;SDS011;51898;49.864;8.550;2022-07-05T07:55:11;4.73;;;4.13;;
10088;SDS011;51898;49.864;8.550;2022-07-05T07:58:16;5.30;;;4.23;;
10088;SDS011;51898;49.864;8.550;2022-07-05T08:01:18;4.57;;;4.27;;
10088;SDS011;51898;49.864;8.550;2022-07-05T08:04:28;4.93;;;3.77;;
10088;SDS011;51898;49.864;8.550;2022-07-05T08:07:36;6.63;;;4.10;;
10088;SDS011;51898;49.864;8.550;2022-07-05T08:10:42;4.43;;;4.03;;
10088;SDS011;51898;49.864;8.550;2022-07-05T08:13:45;5.27;;;4.50;;
10088;SDS011;51898;49.864;8.550;2022-07-05T08:16:50;4.50;;;3.90;;
10088;SDS011;51898;49.864;8.550;2022-07-05T08:19:54;4.43;;;3.90;;
10088;SDS011;51898;49.864;8.550;2022-07-05T08:23:17;4.13;;;3.73;;
10088;SDS011;51898;49.864;8.550;2022-07-05T08:26:19;4.10;;;3.80;;
10088;SDS011;51898;49.864;8.550;2022-07-05T08:29:21;4.30;;;4.10;;
10088;SDS011;51898;49.864;8.550;2022-07-05T08:32:24;4.47;;;4.17;;
10088;SDS011;51898;49.864;8.550;2022-07-05T08:35:26;5.93;;;3.77;;
10088;SDS011;51898;49.864;8.550;2022-07-05T08:38:27;3.70;;;3.50;;
10088;SDS011;51898;49.864;8.550;2022-07-05T08:41:29;5.53;;;4.40;;
10088;SDS011;51898;49.864;8.550;2022-07-05T08:44:33;4.47;;;4.07;;
10088;SDS011;51898;49.864;8.550;2022-07-05T08:47:39;4.13;;;3.80;;
10088;SDS011;51898;49.864;8.550;2022-07-05T08:50:43;4.23;;;3.70;;
10088;SDS011;51898;49.864;8.550;2022-07-05T08:53:47;4.03;;;3.83;;
10088;SDS011;51898;49.864;8.550;2022-07-05T08:56:50;3.80;;;3.50;;
10088;SDS011;51898;49.864;8.550;2022-07-05T09:00:12;4.20;;;3.50;;
10088;SDS011;51898;49.864;8.550;2022-07-05T09:03:14;3.70;;;3.50;;
10088;SDS011;51898;49.864;8.550;2022-07-05T09:06:21;6.77;;;4.10;;
10088;SDS011;51898;49.864;8.550;2022-07-05T09:09:24;3.53;;;3.03;;
10088;SDS011;51898;49.864;8.550;2022-07-05T09:12:26;4.10;;;3.80;;
10088;SDS011;51898;49.864;8.550;2022-07-05T09:15:28;4.53;;;3.63;;
10088;SDS011;51898;49.864;8.550;2022-07-05T09:18:43;3.73;;;3.43;;
10088;SDS011;51898;49.864;8.550;2022-07-05T09:21:59;4.43;;;4.03;;
10088;SDS011;51898;49.864;8.550;2022-07-05T09:25:48;4.40;;;3.23;;
10088;SDS011;51898;49.864;8.550;2022-07-05T09:28:31;3.10;;;3.00;;
10088;SDS011;51898;49.864;8.550;2022-07-05T09:31:34;4.00;;;3.00;;
10088;SDS011;51898;49.864;8.550;2022-07-05T09:34:37;4.10;;;3.33;;
10088;SDS011;51898;49.864;8.550;2022-07-05T09:37:42;3.33;;;3.10;;
10088;SDS011;51898;49.864;8.550;2022-07-05T09:43:52;5.33;;;3.70;;
10088;SDS011;51898;49.864;8.550;2022-07-05T09:47:06;3.40;;;3.20;;
10088;SDS011;51898;49.864;8.550;2022-07-05T09:50:12;3.53;;;3.20;;
10088;SDS011;51898;49.864;8.550;2022-07-05T09:53:15;3.67;;;3.37;;
10088;SDS011;51898;49.864;8.550;2022-07-05T09:56:17;3.80;;;3.50;;
10088;SDS011;51898;49.864;8.550;2022-07-05T09:59:19;5.00;;;3.37;;
10088;SDS011;51898;49.864;8.550;2022-07-05T10:02:36;6.90;;;3.80;;
10088;SDS011;51898;49.864;8.550;2022-07-05T10:05:41;4.43;;;3.80;;
10088;SDS011;51898;49.864;8.550;2022-07-05T10:08:43;3.67;;;3.47;;
10088;SDS011;51898;49.864;8.550;2022-07-05T10:11:45;3.53;;;3.23;;
10088;SDS011;51898;49.864;8.550;2022-07-05T10:14:47;4.37;;;3.57;;
10088;SDS011;51898;49.864;8.550;2022-07-05T10:21:11;4.90;;;3.60;;
10088;SDS011;51898;49.864;8.550;2022-07-05T10:24:15;4.07;;;3.83;;
10088;SDS011;51898;49.864;8.550;2022-07-05T10:27:18;4.90;;;3.40;;
10088;SDS011;51898;49.864;8.550;2022-07-05T10:30:22;5.80;;;3.53;;
10088;SDS011;51898;49.864;8.550;2022-07-05T10:33:24;4.00;;;3.70;;
10088;SDS011;51898;49.864;8.550;2022-07-05T10:36:27;5.43;;;3.80;;
10088;SDS011;51898;49.864;8.550;2022-07-05T10:39:29;4.30;;;3.87;;
10088;SDS011;51898;49.864;8.550;2022-07-05T10:42:36;3.10;;;2.97;;
10088;SDS011;51898;49.864;8.550;2022-07-05T10:45:41;3.43;;;3.23;;
10088;SDS011;51898;49.864;8.550;2022-07-05T10:48:49;3.30;;;3.10;;
10088;SDS011;51898;49.864;8.550;2022-07-05T10:52:24;3.70;;;3.40;;
10088;SDS011;51898;49.864;8.550;2022-07-05T10:55:29;3.63;;;3.33;;
10088;SDS011;51898;49.864;8.550;2022-07-05T10:59:05;4.03;;;3.57;;
10088;SDS011;51898;49.864;8.550;2022-07-05T11:02:12;3.77;;;3.40;;
10088;SDS011;51898;49.864;8.550;2022-07-05T11:05:16;3.77;;;3.37;;
10088;SDS011;51898;49.864;8.550;2022-07-05T11:08:17;3.40;;;3.20;;
10088;SDS011;51898;49.864;8.550;2022-07-05T11:11:23;3.50;;;3.30;;
10088;SDS011;51898;49.864;8.550;2022-07-05T11:14:29;3.77;;;3.40;;
10088;SDS011;51898;49.864;8.550;2022-07-05T11:17:31;3.83;;;3.53;;
10088;SDS011;51898;49.864;8.550;2022-07-05T11:21:10;3.47;;;3.10;;
10088;SDS011;51898;49.864;8.550;2022-07-05T11:24:24;3.10;;;2.90;;
10088;SDS011;51898;49.864;8.550;2022-07-05T11:27:28;4.40;;;3.70;;
10088;SDS011;51898;49.864;8.550;2022-07-05T11:30:29;3.70;;;3.50;;
10088;SDS011;51898;49.864;8.550;2022-07-05T11:33:44;4.53;;;3.07;;
10088;SDS011;51898;49.864;8.550;2022-07-05T11:36:50;3.50;;;3.30;;
10088;SDS011;51898;49.864;8.550;2022-07-05T11:40:38;3.67;;;3.40;;
10088;SDS011;51898;49.864;8.550;2022-07-05T11:43:40;3.30;;;3.10;;
10088;SDS011;51898;49.864;8.550;2022-07-05T11:46:43;3.30;;;3.00;;
10088;SDS011;51898;49.864;8.550;2022-07-05T11:49:52;3.80;;;3.60;;
10088;SDS011;51898;49.864;8.550;2022-07-05T11:52:58;3.83;;;3.60;;
10088;SDS011;51898;49.864;8.550;2022-07-05T11:56:06;3.73;;;3.53;;
10088;SDS011;51898;49.864;8.550;2022-07-05T11:59:20;3.93;;;3.63;;
10088;SDS011;51898;49.864;8.550;2022-07-05T12:02:23;3.70;;;3.40;;
10088;SDS011;51898;49.864;8.550;2022-07-05T12:05:31;3.20;;;3.00;;
10088;SDS011;51898;49.864;8.550;2022-07-05T12:08:36;3.90;;;3.50;;
10088;SDS011;51898;49.864;8.550;2022-07-05T12:11:39;3.60;;;3.40;;
10088;SDS011;51898;49.864;8.550;2022-07-05T12:14:59;4.03;;;3.73;;
10088;SDS011;51898;49.864;8.550;2022-07-05T12:18:02;3.80;;;3.53;;
10088;SDS011;51898;49.864;8.550;2022-07-05T12:21:11;3.70;;;3.43;;
10088;SDS011;51898;49.864;8.550;2022-07-05T12:24:14;3.93;;;3.63;;
10088;SDS011;51898;49.864;8.550;2022-07-05T12:27:17;3.63;;;3.43;;
10088;SDS011;51898;49.864;8.550;2022-07-05T12:30:19;5.80;;;3.70;;
10088;SDS011;51898;49.864;8.550;2022-07-05T12:33:21;3.77;;;3.47;;
10088;SDS011;51898;49.864;8.550;2022-07-05T12:36:23;3.80;;;3.50;;
10088;SDS011;51898;49.864;8.550;2022-07-05T12:39:27;3.30;;;3.10;;
10088;SDS011;51898;49.864;8.550;2022-07-05T12:45:34;3.90;;;3.60;;
10088;SDS011;51898;49.864;8.550;2022-07-05T12:48:38;3.73;;;3.30;;
10088;SDS011;51898;49.864;8.550;2022-07-05T12:51:42;3.60;;;3.00;;
10088;SDS011;51898;49.864;8.550;2022-07-05T12:54:45;4.07;;;3.87;;
10088;SDS011;51898;49.864;8.550;2022-07-05T12:58:05;4.10;;;3.70;;
10088;SDS011;51898;49.864;8.550;2022-07-05T13:04:30;3.57;;;3.27;;
10088;SDS011;51898;49.864;8.550;2022-07-05T13:07:32;4.20;;;3.90;;
10088;SDS011;51898;49.864;8.550;2022-07-05T13:10:45;3.60;;;3.40;;
10088;SDS011;51898;49.864;8.550;2022-07-05T13:13:47;3.90;;;3.60;;
10088;SDS011;51898;49.864;8.550;2022-07-05T13:16:49;6.83;;;3.93;;
10088;SDS011;51898;49.864;8.550;2022-07-05T13:19:51;3.80;;;3.50;;
10088;SDS011;51898;49.864;8.550;2022-07-05T13:22:53;3.80;;;3.60;;
10088;SDS011;51898;49.864;8.550;2022-07-05T13:25:55;4.07;;;3.80;;
10088;SDS011;51898;49.864;8.550;2022-07-05T13:28:57;4.07;;;3.77;;
10088;SDS011;51898;49.864;8.550;2022-07-05T13:31:59;3.87;;;3.67;;
10088;SDS011;51898;49.864;8.550;2022-07-05T13:35:01;4.27;;;4.03;;
10088;SDS011;51898;49.864;8.550;2022-07-05T13:38:04;4.57;;;4.00;;
10088;SDS011;51898;49.864;8.550;2022-07-05T13:41:06;4.10;;;3.80;;
10088;SDS011;51898;49.864;8.550;2022-07-05T13:44:07;4.47;;;4.13;;
10088;SDS011;51898;49.864;8.550;2022-07-05T13:47:09;5.33;;;3.70;;
10088;SDS011;51898;49.864;8.550;2022-07-05T13:50:29;3.80;;;3.53;;
10088;SDS011;51898;49.864;8.550;2022-07-05T13:53:40;3.80;;;3.60;;
10088;SDS011;51898;49.864;8.550;2022-07-05T13:57:10;3.57;;;3.37;;
10088;SDS011;51898;49.864;8.550;2022-07-05T14:00:44;3.73;;;3.43;;
10088;SDS011;51898;49.864;8.550;2022-07-05T14:03:46;3.87;;;3.57;;
10088;SDS011;51898;49.864;8.550;2022-07-05T14:07:04;3.60;;;3.40;;
10088;SDS011;51898;49.864;8.550;2022-07-05T14:10:31;3.33;;;3.10;;
10088;SDS011;51898;49.864;8.550;2022-07-05T14:13:44;3.83;;;3.53;;
10088;SDS011;51898;49.864;8.550;2022-07-05T14:17:35;4.15;;;3.85;;
10088;SDS011;51898;49.864;8.550;2022-07-05T14:21:03;3.80;;;3.50;;
10088;SDS011;51898;49.864;8.550;2022-07-05T14:24:30;4.43;;;3.67;;
10088;SDS011;51898;49.864;8.550;2022-07-05T14:27:32;3.30;;;3.10;;
10088;SDS011;51898;49.864;8.550;2022-07-05T14:30:34;3.77;;;3.40;;
10088;SDS011;51898;49.864;8.550;2022-07-05T14:33:40;4.80;;;3.50;;
10088;SDS011;51898;49.864;8.550;2022-07-05T14:37:23;3.60;;;3.30;;
10088;SDS011;51898;49.864;8.550;2022-07-05T14:40:31;3.50;;;3.40;;
10088;SDS011;51898;49.864;8.550;2022-07-05T14:43:41;3.50;;;3.20;;
10088;SDS011;51898;49.864;8.550;2022-07-05T14:47:03;3.30;;;3.10;;
10088;SDS011;51898;49.864;8.550;2022-07-05T14:50:08;3.43;;;2.77;;
10088;SDS011;51898;49.864;8.550;2022-07-05T14:53:09;3.20;;;3.00;;
10088;SDS011;51898;49.864;8.550;2022-07-05T14:56:11;3.93;;;3.73;;
10088;SDS011;51898;49.864;8.550;2022-07-05T14:59:13;3.90;;;3.70;;
10088;SDS011;51898;49.864;8.550;2022-07-05T15:02:15;3.80;;;3.40;;
10088;SDS011;51898;49.864;8.550;2022-07-05T15:05:18;3.40;;;3.13;;
10088;SDS011;51898;49.864;8.550;2022-07-05T15:08:23;4.13;;;3.73;;
10088;SDS011;51898;49.864;8.550;2022-07-05T15:11:28;3.97;;;3.67;;
10088;SDS011;51898;49.864;8.550;2022-07-05T15:14:30;3.70;;;3.50;;
10088;SDS011;51898;49.864;8.550;2022-07-05T15:17:32;3.70;;;3.40;;
10088;SDS011;51898;49.864;8.550;2022-07-05T15:20:34;3.80;;;3.50;;
10088;SDS011;51898;49.864;8.550;2022-07-05T15:23:36;3.83;;;3.50;;
10088;SDS011;51898;49.864;8.550;2022-07-05T15:26:38;4.73;;;4.37;;
10088;SDS011;51898;49.864;8.550;2022-07-05T15:29:40;6.50;;;6.00;;
10088;SDS011;51898;49.864;8.550;2022-07-05T15:32:43;7.97;;;7.10;;
10088;SDS011;51898;49.864;8.550;2022-07-05T15:35:46;3.63;;;3.43;;
10088;SDS011;51898;49.864;8.550;2022-07-05T15:38:48;3.67;;;3.47;;
10088;SDS011;51898;49.864;8.550;2022-07-05T15:41:55;5.50;;;5.10;;
10088;SDS011;51898;49.864;8.550;2022-07-05T15:44:57;3.93;;;3.53;;
10088;SDS011;51898;49.864;8.550;2022-07-05T15:48:04;5.97;;;5.37;;
10088;SDS011;51898;49.864;8.550;2022-07-05T15:51:06;11.40;;;10.20;;
10088;SDS011;51898;49.864;8.550;2022-07-05T15:54:07;6.27;;;3.63;;
10088;SDS011;51898;49.864;8.550;2022-07-05T15:57:09;3.60;;;3.40;;
10088;SDS011;51898;49.864;8.550;2022-07-05T16:00:11;3.83;;;3.60;;
10088;SDS011;51898;49.864;8.550;2022-07-05T16:03:13;7.60;;;4.80;;
10088;SDS011;51898;49.864;8.550;2022-07-05T16:06:15;3.90;;;3.60;;
10088;SDS011;51898;49.864;8.550;2022-07-05T16:09:17;5.17;;;4.37;;
10088;SDS011;51898;49.864;8.550;2022-07-05T16:12:19;5.70;;;5.20;;
10088;SDS011;51898;49.864;8.550;2022-07-05T16:15:21;3.93;;;3.60;;
10088;SDS011;51898;49.864;8.550;2022-07-05T16:18:42;4.47;;;4.17;;
10088;SDS011;51898;49.864;8.550;2022-07-05T16:21:45;8.53;;;7.63;;
10088;SDS011;51898;49.864;8.550;2022-07-05T16:24:51;4.40;;;4.00;;
10088;SDS011;51898;49.864;8.550;2022-07-05T16:27:52;5.40;;;4.57;;
10088;SDS011;51898;49.864;8.550;2022-07-05T16:30:54;5.40;;;5.00;;
10088;SDS011;51898;49.864;8.550;2022-07-05T16:33:56;7.97;;;7.27;;
10088;SDS011;51898;49.864;8.550;2022-07-05T16:36:57;8.10;;;5.80;;
10088;SDS011;51898;49.864;8.550;2022-07-05T16:39:59;19.10;;;9.20;;
10088;SDS011;51898;49.864;8.550;2022-07-05T16:43:01;6.17;;;4.70;;
10088;SDS011;51898;49.864;8.550;2022-07-05T16:46:03;4.30;;;4.00;;
10088;SDS011;51898;49.864;8.550;2022-07-05T16:49:08;4.77;;;4.37;;
10088;SDS011;51898;49.864;8.550;2022-07-05T16:52:10;4.50;;;4.10;;
10088;SDS011;51898;49.864;8.550;2022-07-05T16:55:11;4.60;;;4.30;;
10088;SDS011;51898;49.864;8.550;2022-07-05T16:58:13;4.43;;;3.80;;
10088;SDS011;51898;49.864;8.550;2022-07-05T17:01:15;5.40;;;4.90;;
10088;SDS011;51898;49.864;8.550;2022-07-05T17:04:18;4.67;;;4.27;;
10088;SDS011;51898;49.864;8.550;2022-07-05T17:07:20;5.00;;;4.70;;
10088;SDS011;51898;49.864;8.550;2022-07-05T17:10:22;5.73;;;4.97;;
10088;SDS011;51898;49.864;8.550;2022-07-05T17:13:23;5.63;;;5.13;;
10088;SDS011;51898;49.864;8.550;2022-07-05T17:16:25;5.70;;;5.30;;
10088;SDS011;51898;49.864;8.550;2022-07-05T17:19:28;6.40;;;5.80;;
10088;SDS011;51898;49.864;8.550;2022-07-05T17:22:30;6.70;;;5.60;;
10088;SDS011;51898;49.864;8.550;2022-07-05T17:25:31;5.00;;;4.60;;
10088;SDS011;51898;49.864;8.550;2022-07-05T17:28:33;4.93;;;4.50;;
10088;SDS011;51898;49.864;8.550;2022-07-05T17:31:37;6.40;;;5.90;;
10088;SDS011;51898;49.864;8.550;2022-07-05T17:34:38;6.17;;;4.70;;
10088;SDS011;51898;49.864;8.550;2022-07-05T17:37:40;4.77;;;4.40;;
10088;SDS011;51898;49.864;8.550;2022-07-05T17:40:41;5.27;;;4.20;;
10088;SDS011;51898;49.864;8.550;2022-07-05T17:43:44;5.00;;;4.60;;
10088;SDS011;51898;49.864;8.550;2022-07-05T17:46:49;5.30;;;4.90;;
10088;SDS011;51898;49.864;8.550;2022-07-05T17:49:51;4.37;;;4.07;;
10088;SDS011;51898;49.864;8.550;2022-07-05T17:52:53;7.83;;;5.20;;
10088;SDS011;51898;49.864;8.550;2022-07-05T17:55:54;5.03;;;4.53;;
10088;SDS011;51898;49.864;8.550;2022-07-05T17:58:56;5.70;;;4.73;;
10088;SDS011;51898;49.864;8.550;2022-07-05T18:01:57;4.83;;;4.50;;
10088;SDS011;51898;49.864;8.550;2022-07-05T18:04:59;5.40;;;5.00;;
10088;SDS011;51898;49.864;8.550;2022-07-05T18:08:01;6.67;;;5.93;;
10088;SDS011;51898;49.864;8.550;2022-07-05T18:11:03;7.30;;;4.70;;
10088;SDS011;51898;49.864;8.550;2022-07-05T18:14:04;9.57;;;4.77;;
10088;SDS011;51898;49.864;8.550;2022-07-05T18:17:06;5.73;;;4.60;;
10088;SDS011;51898;49.864;8.550;2022-07-05T18:20:08;4.93;;;4.40;;
10088;SDS011;51898;49.864;8.550;2022-07-05T18:23:10;5.93;;;4.23;;
10088;SDS011;51898;49.864;8.550;2022-07-05T18:26:12;4.97;;;4.67;;
10088;SDS011;51898;49.864;8.550;2022-07-05T18:29:34;4.63;;;4.27;;
10088;SDS011;51898;49.864;8.550;2022-07-05T18:32:36;4.20;;;3.90;;
10088;SDS011;51898;49.864;8.550;2022-07-05T18:35:43;4.73;;;4.10;;
10088;SDS011;51898;49.864;8.550;2022-07-05T18:38:45;4.47;;;4.17;;
10088;SDS011;51898;49.864;8.550;2022-07-05T18:41:47;5.03;;;4.17;;
10088;SDS011;51898;49.864;8.550;2022-07-05T18:44:48;6.50;;;4.27;;
10088;SDS011;51898;49.864;8.550;2022-07-05T18:47:54;4.30;;;3.90;;